Ana Sayfa
METAR-TAF:

METAR-TAF

Havaalanları :

Farmington Regional Airport

Farmington, Missouri, Amerika Birleşik Devletleri

Enlem: 37-46N, Boylam: 090-26W, yükseklik: 288 m

Güncel hava durumu gözlemi

Rapor saat 10:56 UTC de 34 dakika önce yapıldı.
Rüzgar güney/güneydoğudan 4 kt
Sıcaklık 21°C
Nem 83%
Basınç 1015 hPa
Görüş mesafesi: 16.1 km
Açık gökyüzü

METAR: KFAM 161056Z AUTO 15004KT 10SM CLR 21/18 A2996 RMK AO2 SLP145 T02110183

Saat: 06:30 (11:30 UTC)


TAF: eksik

4.000'den fazla havaalanı için hava durumu gözlemleri ve tahminleri (METAR ve TAF raporları).

Kullanılabilir istasyonlar harita üzerinde sarı ve kırmızı noktalarla gösterilir.

İstasyonun adını görmek için fareyi noktanın üzerinde gezdirin.

Sonrasında hava gözlem ve tahminlerini görmek için tıklayın.

Haritayı değiştirmek için: yaklaştırmak için siyah artı işaretli yeşil düğmeye ve uzaklaştırmak için de eksi işaretli düğmeye hızla tıklayın; bitişik haritalar için yeşil okları kullanın.


METAR-TAF: